Time;durP1;ratioP1;P1;durP2;ratioP2;P2;SDS_P1;SDS_P2;PMS_P1;PMS_P2;Temp;Humidity;BMP_temperature;BMP_pressure;BME280_temperature;BME280_humidity;BME280_pressure;Samples;Min_cycle;Max_cycle;Signal;HPM_P1;HPM_P2
2021/03/22 00:00:25;;;;;;;13.88;8.85;;;3.70;99.90;;;;;;4807262;29;20213;-80
2021/03/22 00:02:53;;;;;;;16.25;9.77;;;3.70;99.90;;;;;;4808349;29;20203;-80
2021/03/22 00:05:21;;;;;;;14.70;9.15;;;3.70;99.90;;;;;;4810775;29;20267;-80
2021/03/22 00:07:47;;;;;;;13.30;8.73;;;3.70;99.90;;;;;;4811262;29;20206;-80
2021/03/22 00:10:14;;;;;;;13.27;9.75;;;3.60;99.90;;;;;;4817153;29;20587;-79
2021/03/22 00:12:40;;;;;;;14.05;8.38;;;3.60;99.90;;;;;;4819848;29;20213;-80
2021/03/22 00:15:08;;;;;;;14.27;8.23;;;3.60;99.90;;;;;;4814977;29;20232;-80
2021/03/22 00:17:34;;;;;;;17.77;9.38;;;3.60;99.90;;;;;;4811652;29;20240;-80
2021/03/22 00:20:01;;;;;;;24.33;9.93;;;3.60;99.90;;;;;;4810048;29;20590;-79
2021/03/22 00:22:27;;;;;;;15.63;8.95;;;3.70;99.90;;;;;;4809568;29;20212;-80
2021/03/22 00:24:54;;;;;;;18.52;9.10;;;3.60;99.90;;;;;;4810057;29;20208;-79
2021/03/22 00:27:20;;;;;;;15.13;8.70;;;3.60;99.90;;;;;;4807606;29;20227;-80
2021/03/22 00:29:46;;;;;;;22.65;9.02;;;3.60;99.90;;;;;;4809465;29;20827;-80
2021/03/22 00:32:12;;;;;;;13.35;8.02;;;3.70;99.90;;;;;;4809257;29;20218;-80
2021/03/22 00:34:39;;;;;;;12.18;9.10;;;3.80;99.90;;;;;;4809385;29;20246;-80
2021/03/22 00:37:06;;;;;;;14.85;9.25;;;3.70;99.90;;;;;;4809275;29;20232;-80
2021/03/22 00:39:32;;;;;;;17.80;9.10;;;3.80;99.90;;;;;;4809887;29;20335;-80
2021/03/22 00:41:58;;;;;;;18.00;8.75;;;3.80;99.90;;;;;;4809794;29;20272;-80
2021/03/22 00:44:25;;;;;;;17.45;9.45;;;3.80;99.90;;;;;;4810279;29;20251;-79
2021/03/22 00:46:51;;;;;;;17.02;8.20;;;3.90;99.90;;;;;;4809289;29;20237;-80
2021/03/22 00:49:17;;;;;;;14.07;8.50;;;3.90;99.90;;;;;;4809582;29;20218;-80
2021/03/22 00:51:44;;;;;;;14.00;8.55;;;3.90;99.90;;;;;;4809390;29;20214;-80
2021/03/22 00:54:11;;;;;;;14.63;7.07;;;3.90;99.90;;;;;;4809651;29;20237;-80
2021/03/22 00:56:37;;;;;;;15.98;8.30;;;3.90;99.90;;;;;;4809596;29;20242;-80
2021/03/22 00:59:04;;;;;;;17.02;9.95;;;3.90;99.90;;;;;;4809049;29;20244;-80
2021/03/22 01:01:30;;;;;;;11.10;7.70;;;3.90;99.90;;;;;;4809560;29;20281;-80
2021/03/22 01:03:56;;;;;;;19.83;9.45;;;3.90;99.90;;;;;;4809365;29;20226;-80
2021/03/22 01:06:23;;;;;;;12.07;7.82;;;3.90;99.90;;;;;;4809568;29;20237;-80
2021/03/22 01:08:49;;;;;;;15.98;7.18;;;3.90;99.90;;;;;;4809650;29;20220;-80
2021/03/22 01:11:18;;;;;;;9.50;7.40;;;3.90;99.90;;;;;;4809231;29;20215;-80
2021/03/22 01:13:47;;;;;;;13.80;7.47;;;3.90;99.90;;;;;;4808690;29;20632;-80
2021/03/22 01:16:14;;;;;;;18.60;8.23;;;3.90;99.90;;;;;;4809625;29;20254;-80
2021/03/22 01:18:44;;;;;;;9.40;5.63;;;4.00;99.90;;;;;;4809527;29;20248;-80
2021/03/22 01:21:14;;;;;;;15.20;6.70;;;3.90;99.90;;;;;;4809285;29;20218;-80
2021/03/22 01:23:40;;;;;;;14.07;7.68;;;3.90;99.90;;;;;;4809123;29;20667;-80
2021/03/22 01:26:10;;;;;;;12.88;6.93;;;4.00;99.90;;;;;;4809368;29;20237;-80
2021/03/22 01:28:37;;;;;;;15.52;8.18;;;4.00;99.90;;;;;;4809003;29;20408;-80
2021/03/22 01:31:05;;;;;;;18.50;6.97;;;3.90;99.90;;;;;;4809007;29;20220;-80
2021/03/22 01:33:35;;;;;;;12.57;6.65;;;3.90;99.90;;;;;;4808826;29;20237;-80
2021/03/22 01:36:04;;;;;;;15.93;7.13;;;4.00;99.90;;;;;;4808959;29;20347;-80
2021/03/22 01:38:31;;;;;;;17.77;7.18;;;4.00;99.90;;;;;;4808974;29;20224;-80
2021/03/22 01:41:34;;;;;;;16.13;6.50;;;3.90;99.90;;;;;;4808922;29;20224;-80
2021/03/22 01:44:14;;;;;;;8.50;6.63;;;3.90;99.90;;;;;;4799215;29;20229;-79
2021/03/22 01:46:42;;;;;;;18.90;5.93;;;3.90;99.90;;;;;;4808428;29;20250;-80
2021/03/22 01:49:09;;;;;;;13.82;6.97;;;3.90;99.90;;;;;;4808599;29;20218;-80
2021/03/22 01:51:37;;;;;;;14.32;6.50;;;3.80;99.90;;;;;;4808253;29;20570;-79
2021/03/22 01:54:05;;;;;;;9.63;5.65;;;3.90;99.90;;;;;;4808505;29;20222;-80
2021/03/22 01:56:36;;;;;;;12.85;5.90;;;3.90;99.90;;;;;;4808642;29;20296;-80
2021/03/22 01:59:02;;;;;;;12.13;6.28;;;3.80;99.90;;;;;;4808914;29;20218;-80
2021/03/22 02:01:30;;;;;;;11.75;6.00;;;3.80;99.90;;;;;;4808391;29;20224;-80
2021/03/22 02:03:57;;;;;;;15.63;9.30;;;4.00;99.90;;;;;;4808323;29;20740;-80
2021/03/22 02:06:24;;;;;;;15.98;6.38;;;4.00;99.90;;;;;;4807976;29;20245;-80
2021/03/22 02:08:52;;;;;;;12.23;6.90;;;4.00;99.90;;;;;;4808492;29;20258;-80
2021/03/22 02:11:20;;;;;;;10.75;5.65;;;4.00;99.90;;;;;;4808608;29;20591;-80
2021/03/22 02:13:48;;;;;;;16.00;7.13;;;3.90;99.90;;;;;;4808788;29;20233;-80
2021/03/22 02:16:17;;;;;;;10.88;5.60;;;3.80;99.90;;;;;;4808062;29;20233;-79
2021/03/22 02:19:03;;;;;;;8.80;5.55;;;3.90;99.90;;;;;;4808299;29;20225;-80
2021/03/22 02:21:58;;;;;;;11.13;7.03;;;3.90;99.90;;;;;;4807923;29;20314;-80
2021/03/22 02:25:00;;;;;;;12.27;6.00;;;3.80;99.90;;;;;;4808329;29;20574;-80
2021/03/22 02:28:10;;;;;;;10.23;6.60;;;3.80;99.90;;;;;;4807687;29;20230;-80
2021/03/22 02:31:13;;;;;;;10.20;5.97;;;3.90;99.90;;;;;;4807898;29;20738;-79
2021/03/22 02:34:07;;;;;;;13.25;5.88;;;3.80;99.90;;;;;;4809813;29;20218;-80
2021/03/22 02:36:42;;;;;;;13.82;5.45;;;3.70;99.90;;;;;;4809012;29;20242;-80
2021/03/22 02:39:09;;;;;;;20.23;6.80;;;3.70;99.90;;;;;;4808225;29;20676;-79
2021/03/22 02:41:40;;;;;;;11.10;5.47;;;3.60;99.90;;;;;;4807977;29;20637;-80
2021/03/22 02:44:10;;;;;;;14.70;6.65;;;3.60;99.90;;;;;;4807990;29;20227;-80
2021/03/22 02:46:37;;;;;;;17.88;8.07;;;3.70;99.90;;;;;;4808306;29;20246;-80
2021/03/22 02:49:08;;;;;;;15.77;8.68;;;3.60;99.90;;;;;;4807772;29;20229;-80
2021/03/22 02:51:46;;;;;;;13.82;5.28;;;3.60;99.90;;;;;;4807528;29;20229;-80
2021/03/22 02:54:19;;;;;;;14.15;6.75;;;3.70;99.90;;;;;;4807653;29;20238;-80
2021/03/22 02:56:53;;;;;;;21.42;6.15;;;3.70;99.90;;;;;;4807506;29;20242;-80
2021/03/22 02:59:22;;;;;;;15.70;5.13;;;3.70;99.90;;;;;;4807483;29;20227;-80
2021/03/22 03:01:52;;;;;;;16.92;5.95;;;3.70;99.90;;;;;;4807601;29;20220;-79
2021/03/22 03:04:20;;;;;;;10.60;4.95;;;3.70;99.90;;;;;;4807720;29;20218;-80
2021/03/22 03:06:52;;;;;;;10.45;5.15;;;3.70;99.90;;;;;;4807087;29;20285;-79
2021/03/22 03:09:20;;;;;;;12.02;4.85;;;3.80;99.90;;;;;;4807935;29;20222;-80
2021/03/22 03:11:46;;;;;;;11.43;7.00;;;3.80;99.90;;;;;;4806893;29;20219;-80
2021/03/22 03:14:13;;;;;;;8.93;5.80;;;3.90;99.90;;;;;;4807457;29;20218;-80
2021/03/22 03:16:39;;;;;;;9.98;6.13;;;3.80;99.90;;;;;;4807378;29;20240;-80
2021/03/22 03:19:06;;;;;;;16.88;4.65;;;3.80;99.90;;;;;;4807543;29;20221;-80
2021/03/22 03:21:34;;;;;;;16.25;7.13;;;3.80;99.90;;;;;;4807108;29;20229;-80
2021/03/22 03:24:01;;;;;;;9.95;5.53;;;3.90;99.90;;;;;;4807625;29;20218;-80
2021/03/22 03:26:27;;;;;;;11.15;4.75;;;3.80;99.90;;;;;;4806337;29;20230;-79
2021/03/22 03:28:53;;;;;;;18.98;5.82;;;3.90;99.90;;;;;;4805879;29;20589;-80
2021/03/22 03:31:20;;;;;;;12.10;5.18;;;3.80;99.90;;;;;;4807154;29;20220;-80
2021/03/22 03:33:46;;;;;;;12.65;4.25;;;3.80;99.90;;;;;;4807355;29;20295;-80
2021/03/22 03:36:12;;;;;;;15.73;4.85;;;3.80;99.90;;;;;;4807192;29;20234;-80
2021/03/22 03:38:39;;;;;;;13.95;4.65;;;3.80;99.90;;;;;;4809901;29;20210;-80
2021/03/22 03:41:06;;;;;;;9.23;4.82;;;3.80;99.90;;;;;;4810267;29;20225;-80
2021/03/22 03:43:32;;;;;;;24.40;6.70;;;3.70;99.90;;;;;;4810016;29;20626;-80
2021/03/22 03:45:58;;;;;;;10.00;6.05;;;3.70;99.90;;;;;;4810737;29;20676;-81
2021/03/22 03:48:27;;;;;;;7.13;5.55;;;3.60;99.90;;;;;;4810326;29;20243;-79
2021/03/22 03:50:55;;;;;;;14.50;5.90;;;3.50;99.90;;;;;;4810503;29;20214;-79
2021/03/22 03:53:21;;;;;;;10.57;4.43;;;3.50;99.90;;;;;;4810405;29;20222;-81
2021/03/22 03:55:49;;;;;;;11.68;4.20;;;3.40;99.90;;;;;;4810362;29;20263;-79
2021/03/22 03:58:16;;;;;;;10.00;4.85;;;3.40;99.90;;;;;;4810395;29;20214;-80
2021/03/22 04:00:45;;;;;;;20.05;4.88;;;3.50;99.90;;;;;;4810914;29;20215;-80
2021/03/22 04:03:24;;;;;;;8.75;5.97;;;3.40;99.90;;;;;;4810106;29;20210;-80
2021/03/22 04:05:55;;;;;;;11.18;4.90;;;3.40;99.90;;;;;;4810648;29;20238;-80
2021/03/22 04:08:22;;;;;;;13.00;4.90;;;3.40;99.90;;;;;;4810233;29;20221;-79
2021/03/22 04:10:50;;;;;;;6.25;4.20;;;3.30;99.90;;;;;;4810967;29;20225;-80
2021/03/22 04:13:17;;;;;;;11.65;4.65;;;3.30;99.90;;;;;;4810533;29;20587;-80
2021/03/22 04:15:44;;;;;;;13.90;5.05;;;3.30;99.90;;;;;;4810502;29;20673;-79
2021/03/22 04:18:11;;;;;;;15.75;4.93;;;3.20;99.90;;;;;;4810345;29;20215;-80
2021/03/22 04:20:37;;;;;;;20.50;5.60;;;3.20;99.90;;;;;;4810554;29;20218;-80
2021/03/22 04:23:04;;;;;;;8.20;4.13;;;3.20;99.90;;;;;;4810559;29;20224;-80
2021/03/22 04:25:30;;;;;;;13.80;4.45;;;3.20;99.90;;;;;;4810351;29;20223;-80
2021/03/22 04:27:57;;;;;;;9.15;5.60;;;3.20;99.90;;;;;;4810182;29;20274;-80
2021/03/22 04:30:24;;;;;;;15.75;4.60;;;3.20;99.90;;;;;;4809957;29;20221;-80
2021/03/22 04:32:51;;;;;;;16.23;6.32;;;3.20;99.90;;;;;;4809728;29;20688;-80
2021/03/22 04:35:18;;;;;;;8.27;4.97;;;3.20;99.90;;;;;;4809680;29;20727;-80
2021/03/22 04:37:44;;;;;;;12.60;6.00;;;3.30;99.90;;;;;;4810102;29;20212;-80
2021/03/22 04:40:12;;;;;;;9.95;5.15;;;3.30;99.90;;;;;;4809801;29;20210;-80
2021/03/22 04:42:39;;;;;;;17.00;5.65;;;3.30;99.90;;;;;;4809758;29;20223;-80
2021/03/22 04:45:08;;;;;;;10.30;3.35;;;3.40;99.90;;;;;;4809847;29;20207;-80
2021/03/22 04:47:36;;;;;;;11.07;4.90;;;3.30;99.90;;;;;;4809355;29;20242;-80
2021/03/22 04:50:02;;;;;;;10.68;4.90;;;3.40;99.90;;;;;;4808576;29;20225;-80
2021/03/22 04:52:28;;;;;;;12.00;4.45;;;3.30;99.90;;;;;;4808459;29;20214;-80
2021/03/22 04:54:55;;;;;;;23.67;6.18;;;3.30;99.90;;;;;;4808371;29;20237;-80
2021/03/22 04:57:26;;;;;;;14.10;4.95;;;3.40;99.90;;;;;;4808449;29;20231;-80
2021/03/22 04:59:52;;;;;;;14.00;4.97;;;3.40;99.90;;;;;;4808711;29;20224;-80
2021/03/22 05:02:20;;;;;;;12.02;4.97;;;3.40;99.90;;;;;;4808137;29;20215;-80
2021/03/22 05:04:46;;;;;;;11.60;4.78;;;3.30;99.90;;;;;;4808941;29;20210;-80
2021/03/22 05:07:13;;;;;;;15.32;5.97;;;3.30;99.90;;;;;;4808213;29;20238;-79
2021/03/22 05:09:39;;;;;;;10.50;5.47;;;3.40;99.90;;;;;;4808602;29;20220;-79
2021/03/22 05:12:07;;;;;;;8.05;3.85;;;3.40;99.90;;;;;;4808230;29;20682;-80
2021/03/22 05:14:33;;;;;;;13.52;4.85;;;3.30;99.90;;;;;;4808414;29;20234;-80
2021/03/22 05:16:59;;;;;;;16.02;6.45;;;3.30;99.90;;;;;;4808318;29;20283;-80
2021/03/22 05:19:27;;;;;;;11.93;4.65;;;3.30;99.90;;;;;;4808182;29;20214;-80
2021/03/22 05:21:55;;;;;;;10.70;4.25;;;3.30;99.90;;;;;;4808093;29;20239;-80
2021/03/22 05:24:22;;;;;;;8.88;4.47;;;3.40;99.90;;;;;;4809088;29;20678;-79
2021/03/22 05:26:48;;;;;;;9.25;3.83;;;3.30;99.90;;;;;;4808902;29;20245;-80
2021/03/22 05:29:14;;;;;;;7.90;4.00;;;3.30;99.90;;;;;;4810050;29;20215;-80
2021/03/22 05:31:41;;;;;;;8.20;4.18;;;3.30;99.90;;;;;;4809145;29;20307;-79
2021/03/22 05:34:07;;;;;;;5.53;4.70;;;3.30;99.90;;;;;;4809464;29;20223;-80
2021/03/22 05:36:34;;;;;;;10.98;4.93;;;3.20;99.90;;;;;;4809266;29;20238;-80
2021/03/22 05:39:01;;;;;;;12.68;4.88;;;3.30;99.90;;;;;;4809254;29;20220;-80
2021/03/22 05:41:29;;;;;;;13.13;4.35;;;3.30;99.90;;;;;;4809299;29;20243;-80
2021/03/22 05:44:12;;;;;;;15.13;3.70;;;3.30;99.90;;;;;;4808969;29;20307;-80
2021/03/22 05:46:46;;;;;;;7.47;3.60;;;3.40;99.90;;;;;;4790264;29;562632;-80
2021/03/22 05:49:30;;;;;;;10.45;4.13;;;3.40;99.90;;;;;;4810368;29;20217;-80
2021/03/22 05:52:32;;;;;;;11.32;4.05;;;3.40;99.90;;;;;;4809689;29;20228;-80
2021/03/22 05:55:41;;;;;;;8.30;4.00;;;3.40;99.90;;;;;;4809998;29;20235;-81
2021/03/22 05:58:30;;;;;;;15.82;4.53;;;3.30;99.90;;;;;;4807745;29;20220;-80
2021/03/22 06:01:03;;;;;;;10.18;4.05;;;3.30;99.90;;;;;;4809649;29;20305;-80
2021/03/22 06:03:35;;;;;;;10.65;6.05;;;3.40;99.90;;;;;;4809877;29;20302;-79
2021/03/22 06:06:15;;;;;;;8.82;3.17;;;3.40;99.90;;;;;;4809799;29;20293;-80
2021/03/22 06:08:49;;;;;;;7.05;3.65;;;3.50;99.90;;;;;;4809534;29;20234;-80
2021/03/22 06:11:34;;;;;;;7.72;3.75;;;3.50;99.90;;;;;;4809726;29;20209;-80
2021/03/22 06:14:03;;;;;;;8.10;4.25;;;3.40;99.90;;;;;;4809550;29;20216;-79
2021/03/22 06:16:34;;;;;;;21.60;5.15;;;3.50;99.90;;;;;;4809536;29;20242;-80
2021/03/22 06:19:03;;;;;;;15.80;4.47;;;3.50;99.90;;;;;;4809934;29;20682;-80
2021/03/22 06:21:33;;;;;;;6.03;3.95;;;3.50;99.90;;;;;;4809260;29;20215;-80
2021/03/22 06:24:06;;;;;;;13.27;4.72;;;3.50;99.90;;;;;;4809465;29;20283;-80
2021/03/22 06:26:40;;;;;;;18.27;4.78;;;3.50;99.90;;;;;;4809319;29;20240;-80
2021/03/22 06:29:12;;;;;;;10.35;4.45;;;3.40;99.90;;;;;;4808625;29;20282;-80
2021/03/22 06:31:39;;;;;;;8.93;4.30;;;3.40;99.90;;;;;;4809026;29;20217;-79
2021/03/22 06:34:08;;;;;;;12.00;4.72;;;3.40;99.90;;;;;;4809069;29;20228;-80
2021/03/22 06:36:35;;;;;;;12.80;4.97;;;3.30;99.90;;;;;;4809102;29;20776;-80
2021/03/22 06:39:06;;;;;;;10.35;5.15;;;3.30;99.90;;;;;;4809664;29;20248;-79
2021/03/22 06:41:41;;;;;;;7.47;6.32;;;3.30;99.90;;;;;;4809242;29;20200;-78
2021/03/22 06:44:09;;;;;;;8.73;6.25;;;3.20;99.90;;;;;;4809280;29;20373;-79
2021/03/22 06:46:53;;;;;;;12.38;4.70;;;3.30;99.90;;;;;;4808746;29;20271;-81
2021/03/22 06:49:23;;;;;;;19.85;6.63;;;3.30;99.90;;;;;;4809253;29;20221;-79
2021/03/22 06:52:02;;;;;;;11.95;5.38;;;3.40;99.90;;;;;;4808644;29;20271;-80
2021/03/22 06:54:36;;;;;;;12.10;7.00;;;3.50;99.90;;;;;;4809068;29;20221;-81
2021/03/22 06:57:07;;;;;;;9.15;3.65;;;3.60;99.90;;;;;;4808893;29;20237;-80
2021/03/22 06:59:33;;;;;;;7.75;4.15;;;3.80;99.90;;;;;;4808723;29;20221;-80
2021/03/22 07:02:20;;;;;;;9.43;4.90;;;3.80;99.90;;;;;;4809032;29;20225;-80
2021/03/22 07:04:46;;;;;;;10.27;4.10;;;3.90;99.90;;;;;;4809504;29;20210;-79
2021/03/22 07:07:16;;;;;;;11.43;5.05;;;3.90;99.90;;;;;;4808865;29;20238;-81
2021/03/22 07:09:47;;;;;;;16.75;5.30;;;3.90;99.90;;;;;;4809559;29;20225;-80
2021/03/22 07:12:22;;;;;;;13.32;5.40;;;4.00;99.90;;;;;;4809270;29;20218;-80
2021/03/22 07:14:49;;;;;;;10.77;3.78;;;4.00;99.90;;;;;;4809587;29;20237;-80
2021/03/22 07:17:18;;;;;;;18.77;5.57;;;3.90;99.90;;;;;;4809266;29;20652;-81
2021/03/22 07:20:05;;;;;;;12.52;4.93;;;3.90;99.90;;;;;;4808859;29;20692;-81
2021/03/22 07:22:34;;;;;;;11.07;5.30;;;3.90;99.90;;;;;;4809369;29;20680;-81
2021/03/22 07:25:07;;;;;;;7.72;4.63;;;3.90;99.90;;;;;;4809340;29;20217;-81
2021/03/22 07:27:39;;;;;;;15.27;5.15;;;3.90;99.90;;;;;;4809314;29;20246;-81
2021/03/22 07:30:32;;;;;;;11.55;5.05;;;3.90;99.90;;;;;;4808798;29;20285;-81
2021/03/22 07:33:18;;;;;;;17.70;4.82;;;3.80;99.90;;;;;;4808560;29;20210;-81
2021/03/22 07:36:05;;;;;;;13.05;4.35;;;3.90;99.90;;;;;;4808958;29;20245;-81
2021/03/22 07:39:05;;;;;;;14.55;5.38;;;3.90;99.90;;;;;;4809466;29;20216;-80
2021/03/22 07:41:43;;;;;;;11.60;3.45;;;4.00;99.90;;;;;;4808952;29;20267;-80
2021/03/22 07:44:40;;;;;;;9.15;4.90;;;4.00;99.90;;;;;;4808679;29;20221;-81
2021/03/22 07:47:26;;;;;;;7.00;3.40;;;4.20;99.90;;;;;;4778336;29;20246;-81
2021/03/22 07:50:03;;;;;;;9.05;3.83;;;4.10;99.90;;;;;;4809168;29;20247;-81
2021/03/22 07:52:37;;;;;;;9.05;6.85;;;4.10;99.90;;;;;;4808735;29;20210;-80
2021/03/22 07:55:19;;;;;;;9.38;3.92;;;4.10;99.90;;;;;;4809221;29;20238;-82
2021/03/22 07:57:57;;;;;;;8.82;4.35;;;4.20;99.90;;;;;;4809699;29;20586;-83
2021/03/22 08:00:34;;;;;;;14.95;4.07;;;4.30;99.90;;;;;;4810699;29;20222;-83
2021/03/22 08:03:23;;;;;;;8.10;4.78;;;4.40;99.90;;;;;;4811207;29;20203;-84
2021/03/22 08:06:23;;;;;;;11.23;4.47;;;4.60;99.90;;;;;;4810546;29;20227;-83
2021/03/22 08:09:00;;;;;;;8.60;4.13;;;4.60;99.90;;;;;;4808217;29;20594;-83
2021/03/22 08:11:36;;;;;;;10.32;5.05;;;4.60;99.90;;;;;;4810541;29;20201;-83
2021/03/22 08:14:12;;;;;;;8.77;4.05;;;4.80;99.90;;;;;;4809503;29;20259;-84
2021/03/22 08:17:30;;;;;;;6.80;3.50;;;4.80;99.90;;;;;;4809566;29;20237;-81
2021/03/22 08:20:02;;;;;;;13.25;4.22;;;4.80;99.90;;;;;;4809303;29;20564;-81
2021/03/22 08:22:32;;;;;;;5.85;2.85;;;4.80;99.90;;;;;;4807981;29;20282;-81
2021/03/22 08:25:20;;;;;;;7.80;3.67;;;4.80;99.90;;;;;;4812923;29;20270;-81
2021/03/22 08:27:54;;;;;;;14.32;3.33;;;5.00;99.90;;;;;;4801643;29;20240;-81
2021/03/22 08:30:36;;;;;;;7.25;3.28;;;5.00;99.90;;;;;;4813500;29;20214;-80
2021/03/22 08:33:09;;;;;;;7.30;3.60;;;5.10;99.90;;;;;;4817708;29;20201;-80
2021/03/22 08:35:39;;;;;;;5.70;3.83;;;5.10;99.90;;;;;;4816322;29;20238;-82
2021/03/22 08:38:11;;;;;;;14.30;4.88;;;5.10;99.90;;;;;;4835397;29;20202;-80
2021/03/22 08:40:47;;;;;;;4.55;3.03;;;5.20;99.90;;;;;;4840182;29;20202;-79
2021/03/22 08:43:22;;;;;;;9.35;4.70;;;5.40;99.90;;;;;;4842173;29;20222;-78
2021/03/22 08:46:02;;;;;;;9.73;3.08;;;5.30;99.70;;;;;;4843127;29;20229;-80
2021/03/22 08:48:29;;;;;;;5.22;2.58;;;5.10;99.40;;;;;;4840133;29;20309;-79
2021/03/22 08:50:59;;;;;;;11.73;3.25;;;5.10;99.80;;;;;;4839486;29;20235;-81
2021/03/22 08:53:33;;;;;;;5.05;2.42;;;5.00;99.80;;;;;;4842449;29;20216;-80
2021/03/22 08:56:02;;;;;;;4.72;2.25;;;5.00;99.90;;;;;;4841705;29;20244;-78
2021/03/22 08:58:32;;;;;;;6.82;2.75;;;5.00;99.90;;;;;;4841833;29;20675;-79
2021/03/22 09:01:19;;;;;;;7.15;2.75;;;5.10;99.90;;;;;;4831385;29;20269;-81
2021/03/22 09:03:50;;;;;;;4.00;2.90;;;5.20;99.60;;;;;;4831085;29;20289;-81
2021/03/22 09:06:19;;;;;;;7.65;3.97;;;5.20;99.90;;;;;;4829019;29;20253;-81
2021/03/22 09:09:16;;;;;;;6.65;3.20;;;5.40;99.90;;;;;;4828227;29;20217;-81
2021/03/22 09:11:44;;;;;;;3.63;2.90;;;5.60;99.40;;;;;;4827638;29;20210;-81
2021/03/22 09:14:36;;;;;;;4.85;3.15;;;5.80;99.20;;;;;;4830118;29;20214;-82
2021/03/22 09:17:05;;;;;;;3.33;2.60;;;6.00;98.50;;;;;;4828204;29;20234;-83
2021/03/22 09:19:43;;;;;;;4.80;2.78;;;6.00;98.50;;;;;;4828577;29;20210;-82
2021/03/22 09:22:50;;;;;;;7.18;2.97;;;5.90;98.10;;;;;;4828107;29;20222;-81
2021/03/22 09:25:54;;;;;;;3.80;2.65;;;5.40;98.30;;;;;;4790584;30;20271;-82
2021/03/22 09:28:58;;;;;;;9.23;2.20;;;5.20;98.80;;;;;;4788080;30;20229;-83
2021/03/22 09:31:40;;;;;;;4.93;2.75;;;5.20;99.50;;;;;;4821484;29;20213;-82
2021/03/22 09:34:42;;;;;;;8.82;3.17;;;5.00;99.60;;;;;;4827809;29;20208;-82
2021/03/22 09:37:38;;;;;;;9.50;3.60;;;4.80;99.70;;;;;;4829398;29;20751;-83
2021/03/22 09:40:06;;;;;;;6.68;2.80;;;4.80;99.90;;;;;;4827278;29;20213;-82
2021/03/22 09:42:34;;;;;;;3.92;2.15;;;4.90;99.90;;;;;;4828675;29;20216;-83
2021/03/22 09:45:23;;;;;;;7.82;3.50;;;4.90;99.90;;;;;;4827779;29;20221;-82
2021/03/22 09:48:20;;;;;;;2.42;2.00;;;4.90;99.90;;;;;;4824034;29;20233;-82
2021/03/22 09:50:48;;;;;;;7.00;3.30;;;4.90;99.90;;;;;;4826553;29;20220;-82
2021/03/22 09:53:20;;;;;;;7.53;4.22;;;5.10;99.90;;;;;;4828675;29;20583;-82
2021/03/22 09:56:00;;;;;;;3.85;3.55;;;5.10;99.90;;;;;;4828305;29;20237;-83
2021/03/22 09:58:36;;;;;;;7.80;3.58;;;5.10;99.90;;;;;;4828928;29;20216;-82
2021/03/22 10:01:06;;;;;;;5.72;2.60;;;5.10;99.90;;;;;;4829052;29;20214;-83
2021/03/22 10:03:42;;;;;;;7.75;4.00;;;5.20;99.90;;;;;;4827722;29;20213;-82
2021/03/22 10:06:41;;;;;;;11.90;4.18;;;5.30;99.90;;;;;;4818074;29;20600;-81
2021/03/22 10:09:13;;;;;;;8.50;4.88;;;5.30;99.90;;;;;;4813127;29;20210;-83
2021/03/22 10:11:43;;;;;;;9.43;3.03;;;5.50;99.90;;;;;;4810856;29;20210;-83
2021/03/22 10:14:17;;;;;;;6.45;2.60;;;5.40;99.60;;;;;;4814813;29;20222;-83
2021/03/22 10:16:46;;;;;;;5.22;3.17;;;5.40;99.30;;;;;;4811371;29;20565;-81
2021/03/22 10:19:15;;;;;;;6.00;3.63;;;5.50;99.40;;;;;;4813860;29;20613;-81
2021/03/22 10:21:46;;;;;;;7.32;2.40;;;5.70;99.30;;;;;;4811178;29;20210;-81
2021/03/22 10:24:22;;;;;;;6.07;2.83;;;5.80;99.20;;;;;;4815926;29;20211;-81
2021/03/22 10:26:50;;;;;;;6.38;4.47;;;6.00;99.00;;;;;;4814924;29;20277;-82
2021/03/22 10:29:27;;;;;;;3.50;2.30;;;6.10;98.60;;;;;;4815649;29;20223;-81
2021/03/22 10:32:07;;;;;;;5.47;4.20;;;6.30;98.40;;;;;;4816305;29;20218;-83
2021/03/22 10:34:42;;;;;;;5.25;2.78;;;6.50;98.00;;;;;;4814053;29;20218;-82
2021/03/22 10:37:14;;;;;;;3.67;2.40;;;6.60;97.00;;;;;;4820776;29;20242;-83
2021/03/22 10:39:47;;;;;;;3.65;3.30;;;6.60;96.70;;;;;;4821375;29;20202;-83
2021/03/22 10:42:37;;;;;;;5.97;3.22;;;6.50;97.00;;;;;;4821569;29;20248;-81
2021/03/22 10:45:30;;;;;;;3.15;2.95;;;6.20;97.30;;;;;;4818837;29;20215;-80
2021/03/22 10:47:59;;;;;;;5.93;2.80;;;6.00;97.50;;;;;;4818988;29;20263;-80
2021/03/22 10:50:29;;;;;;;5.60;2.53;;;5.90;97.90;;;;;;4820322;29;20220;-80
2021/03/22 10:53:04;;;;;;;6.78;3.17;;;5.80;98.10;;;;;;4833797;29;20216;-80
2021/03/22 10:55:31;;;;;;;3.67;2.75;;;5.90;98.40;;;;;;4836613;29;20461;-82
2021/03/22 10:57:59;;;;;;;6.13;3.15;;;5.80;98.10;;;;;;4841790;29;20218;-81
2021/03/22 11:00:33;;;;;;;4.00;2.33;;;5.70;98.30;;;;;;4842392;29;20229;-81
2021/03/22 11:03:03;;;;;;;9.15;2.83;;;5.70;98.80;;;;;;4841650;29;20209;-81
2021/03/22 11:05:39;;;;;;;12.75;3.60;;;5.70;99.40;;;;;;4841225;29;20680;-82
2021/03/22 11:08:39;;;;;;;7.40;3.20;;;5.70;99.50;;;;;;4839761;29;20210;-81
2021/03/22 11:11:12;;;;;;;4.63;4.15;;;5.40;99.90;;;;;;4840688;29;20214;-79
2021/03/22 11:13:42;;;;;;;6.97;3.22;;;5.20;99.90;;;;;;4840184;29;20300;-80
2021/03/22 11:16:09;;;;;;;5.38;4.90;;;5.20;99.90;;;;;;4842083;29;20239;-80
2021/03/22 11:18:36;;;;;;;4.78;2.97;;;5.40;99.90;;;;;;4840121;29;20213;-79
2021/03/22 11:21:03;;;;;;;7.45;4.55;;;5.30;99.90;;;;;;4842715;29;20281;-80
2021/03/22 11:23:41;;;;;;;4.90;3.10;;;5.20;99.90;;;;;;4843807;29;20201;-79
2021/03/22 11:26:16;;;;;;;6.20;3.40;;;5.20;99.90;;;;;;4828885;29;20229;-80
2021/03/22 11:28:42;;;;;;;4.78;3.83;;;5.30;99.90;;;;;;4840516;29;20219;-81
2021/03/22 11:31:20;;;;;;;5.03;2.65;;;5.50;99.90;;;;;;4836170;29;20217;-83
2021/03/22 11:33:59;;;;;;;4.82;3.72;;;5.70;99.90;;;;;;4837378;29;20245;-82
2021/03/22 11:36:33;;;;;;;8.88;3.50;;;5.80;99.40;;;;;;4838542;29;20852;-83
2021/03/22 11:39:10;;;;;;;6.93;4.20;;;5.90;99.50;;;;;;4841449;29;20260;-80
2021/03/22 11:41:39;;;;;;;5.80;3.13;;;5.90;99.00;;;;;;4841135;29;20217;-79
2021/03/22 11:44:18;;;;;;;6.60;3.58;;;5.80;98.80;;;;;;4842562;29;20229;-79
2021/03/22 11:46:46;;;;;;;5.03;3.10;;;5.70;99.20;;;;;;4842204;29;20293;-79
2021/03/22 11:49:43;;;;;;;6.07;3.38;;;5.60;99.00;;;;;;4841452;29;20277;-80
2021/03/22 11:52:19;;;;;;;3.22;2.90;;;5.50;99.20;;;;;;4804677;30;20210;-79
2021/03/22 11:54:51;;;;;;;4.50;2.40;;;5.40;99.50;;;;;;4836274;29;20222;-79
2021/03/22 11:57:21;;;;;;;6.32;3.95;;;5.30;99.70;;;;;;4842443;29;20234;-79
2021/03/22 11:59:49;;;;;;;4.18;2.85;;;5.30;99.90;;;;;;4844900;29;20224;-80
2021/03/22 12:02:32;;;;;;;8.32;4.65;;;5.30;99.90;;;;;;4845522;29;20210;-80
2021/03/22 12:05:01;;;;;;;6.28;3.63;;;5.40;99.80;;;;;;4845587;29;20218;-79
2021/03/22 12:07:42;;;;;;;4.30;3.50;;;5.50;99.80;;;;;;4845453;29;20218;-80
2021/03/22 12:10:23;;;;;;;7.05;3.95;;;5.70;99.40;;;;;;4845727;29;20218;-79
2021/03/22 12:12:49;;;;;;;8.38;6.78;;;5.70;99.00;;;;;;4844885;29;20253;-80
2021/03/22 12:15:17;;;;;;;11.32;7.38;;;5.70;99.00;;;;;;4844876;29;20241;-79
2021/03/22 12:17:46;;;;;;;10.93;6.32;;;5.80;98.80;;;;;;4845270;29;20280;-79
2021/03/22 12:20:20;;;;;;;5.15;4.28;;;5.90;99.00;;;;;;4845559;29;20214;-80
2021/03/22 12:22:46;;;;;;;9.15;8.30;;;6.00;98.50;;;;;;4845344;29;20201;-79
2021/03/22 12:25:17;;;;;;;8.27;3.70;;;6.20;98.30;;;;;;4844403;29;20214;-81
2021/03/22 12:27:44;;;;;;;4.57;3.72;;;6.40;98.00;;;;;;4844582;29;20261;-79
2021/03/22 12:30:11;;;;;;;5.43;3.95;;;6.50;97.60;;;;;;4845750;29;20285;-81
2021/03/22 12:32:38;;;;;;;11.30;5.38;;;6.60;97.70;;;;;;4845408;29;20250;-79
2021/03/22 12:35:07;;;;;;;5.65;5.15;;;6.60;97.20;;;;;;4845324;29;20224;-80
2021/03/22 12:37:36;;;;;;;7.88;2.92;;;6.60;97.20;;;;;;4844774;29;20242;-80
2021/03/22 12:40:05;;;;;;;6.57;3.45;;;6.60;96.80;;;;;;4845448;29;20210;-80
2021/03/22 12:42:31;;;;;;;4.82;2.75;;;6.70;96.80;;;;;;4845129;29;20217;-79
2021/03/22 12:45:00;;;;;;;6.95;2.72;;;6.50;96.80;;;;;;4843783;29;20206;-81
2021/03/22 12:47:28;;;;;;;3.35;3.05;;;6.40;97.20;;;;;;4844059;29;20248;-80
2021/03/22 12:49:57;;;;;;;5.30;3.10;;;6.50;97.40;;;;;;4845165;29;20273;-79
2021/03/22 12:52:23;;;;;;;4.55;2.65;;;6.50;97.30;;;;;;4844731;29;20217;-79
2021/03/22 12:54:50;;;;;;;7.35;3.10;;;6.60;97.50;;;;;;4845109;29;20223;-81
2021/03/22 12:57:18;;;;;;;4.70;3.30;;;6.70;97.10;;;;;;4845080;29;20241;-79
2021/03/22 12:59:45;;;;;;;3.10;2.90;;;6.70;96.80;;;;;;4844754;29;20237;-80
2021/03/22 13:02:16;;;;;;;3.67;3.03;;;6.40;96.70;;;;;;4844540;29;20221;-80
2021/03/22 13:04:43;;;;;;;7.03;2.97;;;6.10;97.10;;;;;;4845119;29;20196;-79
2021/03/22 13:07:09;;;;;;;8.38;2.25;;;6.00;97.80;;;;;;4844569;29;20237;-79
2021/03/22 13:09:38;;;;;;;2.17;2.08;;;5.90;97.60;;;;;;4845037;29;20224;-80
2021/03/22 13:12:05;;;;;;;6.38;3.20;;;6.00;97.40;;;;;;4844447;29;20242;-79
2021/03/22 13:14:33;;;;;;;6.63;3.95;;;5.90;97.60;;;;;;4843485;29;20213;-79
2021/03/22 13:17:00;;;;;;;3.15;2.78;;;5.70;97.80;;;;;;4844551;29;20242;-80
2021/03/22 13:19:27;;;;;;;5.18;3.45;;;5.80;98.10;;;;;;4845408;29;20232;-80
2021/03/22 13:21:53;;;;;;;7.32;2.78;;;5.80;98.30;;;;;;4844715;29;20216;-80